Time;durP1;ratioP1;P1;durP2;ratioP2;P2;SDS_P1;SDS_P2;PMS_P1;PMS_P2;Temp;Humidity;BMP_temperature;BMP_pressure;BME280_temperature;BME280_humidity;BME280_pressure;Samples;Min_cycle;Max_cycle;Signal;HPM_P1;HPM_P2
2023/05/26 00:01:23;;;;;;;7.93;6.45;;;;;;;26.10;44.29;99884.00;4260741;33;34241;-63
2023/05/26 00:03:51;;;;;;;8.40;6.43;;;;;;;26.11;44.30;99890.31;4260491;33;33500;-63
2023/05/26 00:06:22;;;;;;;9.43;6.45;;;;;;;26.10;44.32;99894.94;4259998;33;33942;-63
2023/05/26 00:08:50;;;;;;;8.07;5.97;;;;;;;26.11;44.37;99893.03;4246434;33;34833;-63
2023/05/26 00:11:17;;;;;;;8.45;6.62;;;;;;;26.11;44.44;99899.38;4246212;33;34367;-63
2023/05/26 00:13:45;;;;;;;7.97;6.28;;;;;;;26.10;44.42;99894.94;4246206;33;33086;-63
2023/05/26 00:16:13;;;;;;;8.27;6.22;;;;;;;26.10;44.47;99894.94;4246186;33;34090;-63
2023/05/26 00:18:41;;;;;;;8.18;6.15;;;;;;;26.09;44.45;99897.94;4245009;33;34136;-63
2023/05/26 00:21:08;;;;;;;8.55;5.90;;;;;;;26.10;44.44;99899.59;4246203;33;34760;-63
2023/05/26 00:23:36;;;;;;;9.35;6.62;;;;;;;26.09;44.43;99898.75;4246061;33;33691;-63
2023/05/26 00:26:04;;;;;;;7.90;6.62;;;;;;;26.08;44.43;99897.09;4245909;33;34828;-63
2023/05/26 00:28:31;;;;;;;8.25;6.57;;;;;;;26.08;44.42;99893.53;4246125;33;34092;-63
2023/05/26 00:30:58;;;;;;;8.75;6.50;;;;;;;26.08;44.41;99894.37;4245829;33;34172;-63
2023/05/26 00:33:26;;;;;;;9.07;6.90;;;;;;;26.09;44.36;99898.75;4245884;33;33635;-63
2023/05/26 00:35:54;;;;;;;9.77;6.90;;;;;;;26.09;44.32;99895.19;4246018;33;33842;-63
2023/05/26 00:38:21;;;;;;;8.65;7.05;;;;;;;26.08;44.30;99897.09;4246042;33;33985;-63
2023/05/26 00:40:49;;;;;;;7.65;6.43;;;;;;;26.08;44.26;99896.28;4245917;33;34305;-63
2023/05/26 00:43:17;;;;;;;7.87;6.10;;;;;;;26.08;44.23;99891.63;4245060;33;33635;-63
2023/05/26 00:45:44;;;;;;;9.00;6.15;;;;;;;26.08;44.19;99896.28;4245947;33;33713;-63
2023/05/26 00:48:12;;;;;;;7.85;6.35;;;;;;;26.07;44.21;99892.72;4245872;33;33745;-62
2023/05/26 00:50:40;;;;;;;9.75;7.07;;;;;;;26.07;44.23;99895.44;4245951;33;34310;-63
2023/05/26 00:53:11;;;;;;;8.43;6.30;;;;;;;26.07;44.15;99892.72;4233280;33;33590;-63
2023/05/26 00:55:39;;;;;;;10.77;6.55;;;;;;;26.08;44.00;99888.06;4233282;33;34584;-63
2023/05/26 00:58:07;;;;;;;9.57;7.15;;;;;;;26.08;43.91;99886.16;4244666;33;34689;-63
2023/05/26 01:00:35;;;;;;;10.30;6.57;;;;;;;26.07;43.87;99886.41;4251851;33;34859;-63
2023/05/26 01:03:03;;;;;;;8.20;6.35;;;;;;;26.05;43.94;99883.91;4247280;33;33343;-62
2023/05/26 01:05:31;;;;;;;9.80;6.40;;;;;;;26.04;43.84;99876.78;4258718;33;34544;-63
2023/05/26 01:07:58;;;;;;;8.95;6.65;;;;;;;26.04;43.91;99878.69;4250754;33;34162;-63
2023/05/26 01:10:31;;;;;;;9.57;6.32;;;;;;;26.04;43.89;99884.16;4246100;33;34116;-63
2023/05/26 01:13:21;;;;;;;8.98;6.45;;;;;;;26.03;43.91;99877.88;4245755;33;33534;-63
2023/05/26 01:16:03;;;;;;;10.15;7.43;;;;;;;26.06;43.88;99882.81;4244545;33;33933;-63
2023/05/26 01:18:36;;;;;;;10.90;7.15;;;;;;;26.02;43.82;99878.94;4231872;33;34044;-63
2023/05/26 01:21:13;;;;;;;8.70;7.00;;;;;;;26.02;43.71;99880.81;4233116;33;34543;-63
2023/05/26 01:24:06;;;;;;;9.35;7.25;;;;;;;26.01;43.73;99877.25;4244472;33;33496;-63
2023/05/26 01:26:50;;;;;;;9.27;7.00;;;;;;;26.00;43.80;99883.81;4245606;33;34972;-63
2023/05/26 01:29:19;;;;;;;9.02;6.75;;;;;;;26.02;43.81;99870.75;4244470;33;34550;-62
2023/05/26 01:31:47;;;;;;;9.17;7.23;;;;;;;25.99;43.74;99876.69;4245590;33;34272;-63
2023/05/26 01:34:14;;;;;;;8.25;6.40;;;;;;;25.99;43.64;99878.59;4245443;33;34473;-63
2023/05/26 01:36:42;;;;;;;9.10;6.53;;;;;;;25.99;43.66;99878.59;4245503;33;34284;-63
2023/05/26 01:39:10;;;;;;;11.27;7.50;;;;;;;25.98;43.68;99869.56;4245529;33;34051;-63
2023/05/26 01:41:44;;;;;;;9.18;7.12;;;;;;;25.99;43.67;99873.13;4243992;33;34864;-62
2023/05/26 01:44:23;;;;;;;7.97;6.78;;;;;;;25.98;43.69;99875.03;4244270;33;33688;-62
2023/05/26 01:46:52;;;;;;;9.20;6.75;;;;;;;25.98;43.64;99868.72;4245301;33;34741;-62
2023/05/26 01:49:21;;;;;;;8.75;6.85;;;;;;;25.96;43.59;99863.47;4245396;33;33699;-63
2023/05/26 01:51:51;;;;;;;10.25;7.35;;;;;;;25.96;43.58;99863.47;4245427;33;33944;-63
2023/05/26 01:54:18;;;;;;;;;;;;;;;25.95;43.54;99861.81;4245509;33;33091;-63
2023/05/26 01:56:46;;;;;;;8.88;6.90;;;;;;;26.06;43.28;99863.69;4244284;33;34958;-63
2023/05/26 01:59:14;;;;;;;11.50;7.18;;;;;;;25.97;43.41;99862.41;4245194;33;34763;-63
2023/05/26 02:01:42;;;;;;;10.00;7.53;;;;;;;25.94;43.51;99871.94;4243871;33;34145;-63
2023/05/26 02:04:11;;;;;;;9.45;6.82;;;;;;;25.93;43.53;99872.19;4245223;33;34262;-63
2023/05/26 02:06:39;;;;;;;11.40;7.60;;;;;;;25.94;43.51;99873.84;4246449;33;34051;-63
2023/05/26 02:09:08;;;;;;;9.10;7.18;;;;;;;25.93;43.48;99873.00;4259241;33;34868;-63
2023/05/26 02:11:35;;;;;;;10.48;7.57;;;;;;;25.91;43.60;99872.41;4258052;33;34432;-63
2023/05/26 02:14:03;;;;;;;9.40;7.07;;;;;;;25.92;43.50;99868.59;4259296;33;33330;-63
2023/05/26 02:16:32;;;;;;;9.55;6.55;;;;;;;25.92;43.49;99862.31;4259085;33;34093;-63
2023/05/26 02:19:01;;;;;;;10.40;7.50;;;;;;;25.92;43.48;99868.59;4259203;33;34072;-63
2023/05/26 02:21:30;;;;;;;9.05;7.20;;;;;;;25.91;43.40;99872.41;4259174;33;33722;-63
2023/05/26 02:23:58;;;;;;;9.77;7.72;;;;;;;25.90;43.48;99865.28;4259046;33;33360;-63
2023/05/26 02:26:26;;;;;;;9.27;7.12;;;;;;;25.93;43.53;99864.81;4259090;33;33822;-63
2023/05/26 02:28:56;;;;;;;9.10;7.15;;;;;;;25.91;43.40;99864.22;4259314;33;34692;-63
2023/05/26 02:31:24;;;;;;;9.68;7.53;;;;;;;25.91;43.38;99863.37;4260892;33;35020;-63
2023/05/26 02:33:53;;;;;;;10.93;7.32;;;;;;;25.90;43.39;99862.56;4261211;33;34368;-63
2023/05/26 02:36:21;;;;;;;9.13;6.80;;;;;;;25.92;43.35;99865.03;4260712;33;34510;-63
2023/05/26 02:38:48;;;;;;;8.98;7.20;;;;;;;25.90;43.39;99870.75;4260937;33;33931;-63
2023/05/26 02:41:16;;;;;;;8.63;7.03;;;;;;;25.89;43.33;99869.09;4260849;33;34262;-63
2023/05/26 02:43:45;;;;;;;8.93;6.82;;;;;;;25.88;43.41;99864.72;4260751;33;33530;-63
2023/05/26 02:46:14;;;;;;;11.25;7.05;;;;;;;25.90;43.38;99865.28;4260743;33;34613;-63
2023/05/26 02:48:42;;;;;;;9.77;6.70;;;;;;;25.90;43.37;99867.19;4260844;33;34747;-63
2023/05/26 02:51:10;;;;;;;11.00;7.12;;;;;;;25.89;43.28;99871.00;4260667;33;34992;-63
2023/05/26 02:53:38;;;;;;;9.95;7.57;;;;;;;25.89;43.34;99868.28;4260808;33;33551;-63
2023/05/26 02:56:06;;;;;;;8.95;6.82;;;;;;;25.88;43.36;99872.91;4259342;33;34803;-63
2023/05/26 02:58:34;;;;;;;10.18;7.62;;;;;;;25.88;43.38;99869.31;4260666;33;33629;-63
2023/05/26 03:01:02;;;;;;;9.98;6.43;;;;;;;25.87;43.42;99871.22;4260741;33;34915;-63
2023/05/26 03:03:30;;;;;;;9.93;7.03;;;;;;;25.87;43.38;99875.88;4260838;33;33628;-63
2023/05/26 03:05:58;;;;;;;9.23;6.90;;;;;;;25.87;43.32;99870.41;4260772;33;33966;-63
2023/05/26 03:08:26;;;;;;;11.73;7.45;;;;;;;25.87;43.28;99878.59;4249287;33;33886;-63
2023/05/26 03:10:54;;;;;;;9.77;7.07;;;;;;;25.86;43.34;99879.69;4246562;33;34102;-63
2023/05/26 03:13:38;;;;;;;10.30;7.12;;;;;;;25.86;43.32;99877.78;4246814;33;33573;-67
2023/05/26 03:16:06;;;;;;;9.88;6.97;;;;;;;25.85;43.42;99884.31;4246439;33;33879;-67
2023/05/26 03:18:34;;;;;;;11.65;6.65;;;;;;;25.87;43.46;99884.06;4249080;33;34488;-63
2023/05/26 03:21:04;;;;;;;9.10;7.00;;;;;;;25.86;43.56;99885.97;4262514;33;32940;-63
2023/05/26 03:23:32;;;;;;;7.85;6.20;;;;;;;25.87;43.48;99881.34;4274440;33;33209;-63
2023/05/26 03:26:00;;;;;;;8.27;6.45;;;;;;;25.88;43.39;99881.13;4260288;33;32901;-63
2023/05/26 03:28:29;;;;;;;9.50;6.90;;;;;;;25.88;43.34;99885.72;4260115;33;34488;-63
2023/05/26 03:30:58;;;;;;;8.15;6.30;;;;;;;25.88;43.29;99891.19;4260393;33;33837;-63
2023/05/26 03:33:26;;;;;;;10.07;7.15;;;;;;;25.88;43.35;99892.03;4247297;33;32922;-64
2023/05/26 03:35:54;;;;;;;12.95;7.35;;;;;;;25.88;43.33;99891.19;4259299;33;34485;-63
2023/05/26 03:38:22;;;;;;;8.57;7.00;;;;;;;25.88;43.23;99883.84;4244964;33;34035;-63
2023/05/26 03:40:49;;;;;;;8.32;6.72;;;;;;;25.89;43.18;99888.25;4245363;33;34758;-63
2023/05/26 03:43:17;;;;;;;8.90;7.05;;;;;;;25.88;43.22;99896.66;4244682;33;33432;-63
2023/05/26 03:45:44;;;;;;;11.07;7.62;;;;;;;25.87;43.20;99898.56;4245844;33;34774;-63
2023/05/26 03:48:13;;;;;;;10.70;7.40;;;;;;;25.87;43.21;99893.09;4245916;33;34420;-63
2023/05/26 03:50:46;;;;;;;10.07;7.10;;;;;;;25.88;43.14;99891.19;4233315;33;33888;-63
2023/05/26 03:53:14;;;;;;;9.23;7.32;;;;;;;25.88;43.18;99899.38;4245614;33;33779;-63
2023/05/26 03:55:41;;;;;;;10.30;7.65;;;;;;;25.87;43.12;99892.28;4244601;33;33807;-63
2023/05/26 03:58:10;;;;;;;10.27;7.82;;;;;;;25.88;43.11;99891.19;4245766;33;34002;-63
2023/05/26 04:00:38;;;;;;;9.35;7.35;;;;;;;25.88;43.08;99885.72;4245372;33;34458;-62
2023/05/26 04:03:05;;;;;;;9.30;7.43;;;;;;;25.87;43.18;99892.28;4246442;33;33412;-61
2023/05/26 04:05:33;;;;;;;8.80;7.15;;;;;;;25.86;43.25;99899.63;4245032;33;34577;-61
2023/05/26 04:08:01;;;;;;;18.27;7.82;;;;;;;25.86;43.19;99896.91;4254990;33;34836;-61
2023/05/26 04:10:28;;;;;;;8.07;7.07;;;;;;;25.87;43.14;99911.41;4260526;33;34056;-61
2023/05/26 04:12:57;;;;;;;8.50;6.78;;;;;;;25.87;43.14;99900.47;4260557;33;34338;-61
2023/05/26 04:15:25;;;;;;;8.63;7.20;;;;;;;25.88;43.11;99904.84;4260074;33;34049;-61
2023/05/26 04:17:52;;;;;;;10.02;7.12;;;;;;;25.87;43.11;99909.50;4260062;33;34680;-61
2023/05/26 04:20:20;;;;;;;9.57;7.32;;;;;;;25.87;43.10;99909.50;4260256;33;34937;-61
2023/05/26 04:22:47;;;;;;;9.75;7.50;;;;;;;25.86;43.01;99905.09;4260195;33;33364;-61
2023/05/26 04:25:16;;;;;;;8.85;6.75;;;;;;;25.86;43.03;99913.31;4259957;33;33948;-68
2023/05/26 04:27:44;;;;;;;12.13;7.28;;;;;;;25.86;43.11;99907.84;4263746;33;33548;-68
2023/05/26 04:30:13;;;;;;;9.63;6.97;;;;;;;25.86;43.13;99912.47;4252732;33;34596;-68
2023/05/26 04:32:42;;;;;;;9.45;7.35;;;;;;;25.86;43.15;99909.75;4248275;33;33500;-68
2023/05/26 04:35:10;;;;;;;9.90;7.25;;;;;;;25.87;43.12;99914.12;4244051;33;33650;-68
2023/05/26 04:37:38;;;;;;;10.65;6.95;;;;;;;25.87;43.17;99906.75;4251187;33;33335;-68
2023/05/26 04:40:09;;;;;;;9.98;7.90;;;;;;;25.86;43.14;99910.56;4252145;33;34244;-68
2023/05/26 04:42:38;;;;;;;10.82;8.10;;;;;;;25.87;43.07;99914.97;4249142;33;33664;-67
2023/05/26 04:45:08;;;;;;;10.43;8.05;;;;;;;25.87;43.05;99914.12;4252755;33;34004;-67
2023/05/26 04:47:38;;;;;;;11.77;7.45;;;;;;;25.87;43.03;99916.87;4260202;33;33894;-68
2023/05/26 04:50:06;;;;;;;10.52;8.13;;;;;;;25.86;43.12;99915.22;4259804;33;34214;-67
2023/05/26 04:52:34;;;;;;;10.93;8.07;;;;;;;25.87;43.08;99919.59;4258942;33;33581;-67
2023/05/26 04:55:02;;;;;;;12.70;7.80;;;;;;;25.86;43.07;99916.03;4255641;33;33832;-67
2023/05/26 04:57:31;;;;;;;9.40;6.65;;;;;;;25.86;43.11;99917.94;4252747;33;34847;-67
2023/05/26 04:59:58;;;;;;;12.00;7.95;;;;;;;25.87;43.11;99922.34;4251596;33;34117;-68
2023/05/26 05:02:26;;;;;;;12.55;7.62;;;;;;;25.87;43.10;99925.06;4246130;33;33355;-68
2023/05/26 05:04:54;;;;;;;11.40;8.32;;;;;;;25.86;43.11;99920.69;4256838;33;35111;-68
2023/05/26 05:07:21;;;;;;;11.32;8.00;;;;;;;25.85;43.18;99917.13;4253336;33;34718;-67
2023/05/26 05:09:49;;;;;;;11.20;8.45;;;;;;;25.86;43.10;99926.97;4252081;33;34581;-68
2023/05/26 05:12:17;;;;;;;10.85;8.27;;;;;;;25.87;43.02;99922.34;4246799;33;33751;-67
2023/05/26 05:14:45;;;;;;;10.52;8.18;;;;;;;25.86;43.00;99926.16;4254072;33;34436;-67
2023/05/26 05:17:12;;;;;;;10.40;8.88;;;;;;;25.87;43.01;99919.59;4252954;33;33910;-67
2023/05/26 05:19:41;;;;;;;11.80;9.43;;;;;;;25.86;43.08;99929.72;4251636;33;34847;-68
2023/05/26 05:22:08;;;;;;;11.82;8.93;;;;;;;25.86;42.94;99920.69;4250630;33;34509;-67
2023/05/26 05:24:36;;;;;;;12.00;8.77;;;;;;;25.85;42.91;99928.06;4245594;33;33968;-68
2023/05/26 05:27:05;;;;;;;11.05;8.50;;;;;;;25.85;43.00;99922.59;4245791;33;33924;-67
2023/05/26 05:29:33;;;;;;;11.00;8.93;;;;;;;25.87;43.01;99925.06;4245900;33;34905;-67
2023/05/26 05:32:00;;;;;;;10.93;8.57;;;;;;;25.86;42.96;99923.41;4245953;33;33390;-67
2023/05/26 05:34:30;;;;;;;12.85;10.18;;;;;;;25.85;42.99;99922.59;4245735;33;33991;-68
2023/05/26 05:36:57;;;;;;;11.50;8.63;;;;;;;25.86;42.92;99924.25;4232809;33;33178;-67
2023/05/26 05:39:25;;;;;;;11.73;9.32;;;;;;;25.85;42.92;99925.31;4245513;33;34987;-67
2023/05/26 05:41:53;;;;;;;11.55;9.68;;;;;;;25.85;42.95;99922.59;4245347;33;33526;-67
2023/05/26 05:44:20;;;;;;;13.75;9.82;;;;;;;25.86;42.90;99926.16;4245567;33;34873;-67
2023/05/26 05:46:48;;;;;;;13.25;9.32;;;;;;;25.84;42.94;99923.66;4245504;33;33972;-67
2023/05/26 05:49:16;;;;;;;12.43;10.05;;;;;;;25.85;42.92;99927.22;4245341;33;33511;-67
2023/05/26 05:51:43;;;;;;;12.30;9.57;;;;;;;25.85;42.89;99932.69;4245706;33;34174;-68
2023/05/26 05:54:11;;;;;;;13.25;8.85;;;;;;;25.84;42.80;99933.78;4245395;33;34321;-67
2023/05/26 05:56:39;;;;;;;12.05;9.18;;;;;;;25.84;42.82;99934.59;4245117;33;33545;-67
2023/05/26 05:59:07;;;;;;;13.23;9.93;;;;;;;25.84;42.88;99940.06;4245527;33;34932;-67
2023/05/26 06:01:35;;;;;;;14.65;10.93;;;;;;;25.84;42.91;99942.81;4245056;33;33746;-67
2023/05/26 06:04:02;;;;;;;14.15;9.70;;;;;;;25.84;42.85;99941.97;4245816;33;33611;-67
2023/05/26 06:06:31;;;;;;;11.68;9.48;;;;;;;25.83;42.82;99946.56;4247472;33;34670;-67
2023/05/26 06:08:58;;;;;;;12.48;9.77;;;;;;;25.84;42.88;99950.16;4260937;33;34567;-68
2023/05/26 06:11:27;;;;;;;12.40;9.35;;;;;;;25.82;42.90;99955.84;4261296;33;33765;-67
2023/05/26 06:13:54;;;;;;;11.27;9.10;;;;;;;25.82;42.92;99960.50;4260919;33;34622;-67
2023/05/26 06:16:22;;;;;;;12.95;10.52;;;;;;;25.83;42.94;99964.88;4261160;33;34572;-67
2023/05/26 06:18:51;;;;;;;14.70;10.60;;;;;;;25.82;42.78;99958.59;4261308;33;34838;-67
2023/05/26 06:21:18;;;;;;;14.77;11.02;;;;;;;25.83;42.77;99959.41;4261207;33;34403;-67
2023/05/26 06:23:46;;;;;;;13.25;10.23;;;;;;;25.82;42.72;99963.22;4261090;33;34479;-68
2023/05/26 06:26:14;;;;;;;14.23;10.60;;;;;;;25.81;42.87;99959.66;4260884;33;33535;-67
2023/05/26 06:28:42;;;;;;;10.95;9.75;;;;;;;25.81;42.88;99967.88;4260822;33;34797;-67
2023/05/26 06:31:09;;;;;;;13.77;10.68;;;;;;;25.81;42.91;99964.31;4261073;33;33351;-67
2023/05/26 06:33:37;;;;;;;12.70;9.93;;;;;;;25.80;42.94;99966.22;4260044;33;34599;-67
2023/05/26 06:36:05;;;;;;;14.02;11.05;;;;;;;25.82;42.83;99964.06;4261147;33;33975;-67
2023/05/26 06:38:33;;;;;;;13.15;11.10;;;;;;;25.81;42.87;99965.13;4260701;33;34248;-67
2023/05/26 06:41:01;;;;;;;11.80;10.02;;;;;;;25.81;42.90;99962.41;4261046;33;34666;-67
2023/05/26 06:43:28;;;;;;;13.57;11.10;;;;;;;25.80;42.93;99955.28;4247844;33;34076;-67
2023/05/26 06:45:56;;;;;;;12.85;9.88;;;;;;;25.80;42.93;99958.00;4260950;33;34053;-67
2023/05/26 06:48:24;;;;;;;12.63;10.43;;;;;;;25.81;42.92;99964.31;4261064;33;34037;-68
2023/05/26 06:50:53;;;;;;;12.05;9.77;;;;;;;25.80;42.91;99965.38;4259837;33;33601;-67
2023/05/26 06:53:20;;;;;;;13.85;10.52;;;;;;;25.80;42.86;99960.75;4260910;33;34898;-67
2023/05/26 06:55:50;;;;;;;14.93;10.55;;;;;;;25.80;42.82;99968.13;4260751;33;34866;-68
2023/05/26 06:58:17;;;;;;;14.05;10.57;;;;;;;25.81;42.81;99969.78;4260765;33;34333;-67
2023/05/26 07:00:56;;;;;;;12.07;9.98;;;;;;;25.80;42.85;99970.84;4260877;33;33614;-67
2023/05/26 07:03:26;;;;;;;12.00;9.80;;;;;;;25.81;42.83;99969.78;4259877;33;34851;-67
2023/05/26 07:05:54;;;;;;;12.50;10.27;;;;;;;25.80;42.86;99973.59;4259696;33;33773;-67
2023/05/26 07:08:24;;;;;;;12.23;9.77;;;;;;;25.80;42.87;99970.84;4260526;33;34896;-67
2023/05/26 07:10:52;;;;;;;13.40;10.45;;;;;;;25.79;42.88;99974.66;4261008;33;33384;-67
2023/05/26 07:13:20;;;;;;;12.73;9.80;;;;;;;25.79;43.00;99975.50;4260610;33;34907;-67
2023/05/26 07:15:48;;;;;;;12.82;10.30;;;;;;;25.80;43.03;99982.59;4259004;33;34913;-67
2023/05/26 07:18:16;;;;;;;13.62;10.70;;;;;;;25.80;43.05;99977.13;4261005;33;34369;-68
2023/05/26 07:20:44;;;;;;;11.90;9.45;;;;;;;25.81;43.03;99977.97;4260711;33;33341;-68
2023/05/26 07:23:13;;;;;;;12.25;10.23;;;;;;;25.81;43.03;99969.78;4260826;33;33851;-68
2023/05/26 07:25:40;;;;;;;10.90;9.40;;;;;;;25.83;42.99;99978.56;4260688;33;33696;-67
2023/05/26 07:28:08;;;;;;;13.32;10.18;;;;;;;25.83;43.01;99975.81;4260496;33;34209;-68
2023/05/26 07:30:36;;;;;;;11.23;9.45;;;;;;;25.84;42.98;99978.34;4260679;33;33414;-67
2023/05/26 07:33:04;;;;;;;12.88;9.80;;;;;;;25.84;42.78;99983.81;4260516;33;33933;-67
2023/05/26 07:35:32;;;;;;;14.15;10.60;;;;;;;25.85;42.65;99976.44;4260519;33;33712;-67
2023/05/26 07:38:02;;;;;;;15.00;10.80;;;;;;;25.85;42.53;99977.25;4260783;33;34884;-67
2023/05/26 07:40:34;;;;;;;13.25;10.65;;;;;;;25.86;42.47;99975.34;4257145;33;34599;-67
2023/05/26 07:43:02;;;;;;;14.40;10.68;;;;;;;25.87;42.34;99975.09;4260155;33;33811;-67
2023/05/26 07:45:30;;;;;;;14.90;10.52;;;;;;;25.87;42.24;99979.75;4259694;33;33961;-68
2023/05/26 07:47:57;;;;;;;11.77;10.50;;;;;;;25.88;42.29;99981.41;4260365;33;34252;-67
2023/05/26 07:50:25;;;;;;;12.85;10.23;;;;;;;25.88;42.31;99984.13;4260364;33;34131;-68
2023/05/26 07:52:53;;;;;;;12.07;9.70;;;;;;;25.87;42.23;99975.09;4247640;33;34652;-68
2023/05/26 07:55:20;;;;;;;12.85;10.00;;;;;;;25.88;42.33;99973.19;4260219;33;34370;-67
2023/05/26 07:57:48;;;;;;;13.77;9.80;;;;;;;25.89;42.25;99974.88;4257503;33;33706;-68
2023/05/26 08:00:16;;;;;;;12.45;9.77;;;;;;;25.89;42.16;99975.72;4246259;33;34588;-67
2023/05/26 08:02:45;;;;;;;13.18;10.40;;;;;;;25.89;41.96;99972.16;4246096;33;34038;-68
2023/05/26 08:05:13;;;;;;;14.43;10.30;;;;;;;25.91;41.87;99981.75;4246514;33;34003;-67
2023/05/26 08:07:40;;;;;;;16.65;9.80;;;;;;;25.90;41.88;99976.53;4246456;33;34183;-67
2023/05/26 08:10:08;;;;;;;12.13;8.95;;;;;;;25.90;41.95;99977.38;4246027;33;34375;-67
2023/05/26 08:12:36;;;;;;;13.48;9.25;;;;;;;25.90;41.84;99980.09;4246178;33;33905;-68
2023/05/26 08:15:04;;;;;;;11.40;8.77;;;;;;;25.92;41.67;99979.84;4246143;33;34739;-69
2023/05/26 08:17:32;;;;;;;14.98;9.63;;;;;;;25.94;41.72;99985.94;4245984;33;33584;-69
2023/05/26 08:19:59;;;;;;;12.23;8.45;;;;;;;25.93;41.58;99987.00;4246359;33;33706;-69
2023/05/26 08:22:28;;;;;;;14.02;9.70;;;;;;;25.93;41.58;99989.75;4258276;33;34027;-69
2023/05/26 08:24:57;;;;;;;11.52;9.00;;;;;;;25.94;41.65;99984.03;4260100;33;33881;-68
2023/05/26 08:27:24;;;;;;;11.57;8.75;;;;;;;25.93;41.65;99976.91;4259526;33;34420;-69
2023/05/26 08:29:52;;;;;;;11.07;8.73;;;;;;;25.94;41.55;99977.72;4260009;33;34005;-69
2023/05/26 08:32:20;;;;;;;11.35;9.55;;;;;;;25.94;41.45;99978.56;4259775;33;34842;-68
2023/05/26 08:34:47;;;;;;;12.07;8.65;;;;;;;25.95;41.25;99972.00;4260127;33;34853;-68
2023/05/26 08:37:16;;;;;;;10.38;9.05;;;;;;;25.95;41.01;99973.91;4260252;33;34800;-68
2023/05/26 08:39:44;;;;;;;14.27;9.40;;;;;;;25.96;41.03;99970.09;4259974;33;33558;-68
2023/05/26 08:42:14;;;;;;;14.75;9.93;;;;;;;25.98;40.95;99978.91;4259948;33;34015;-69
2023/05/26 08:44:43;;;;;;;;;;;;;;;25.98;40.66;99973.44;4260222;33;34137;-69
2023/05/26 08:47:11;;;;;;;12.88;10.35;;;;;;;26.10;40.03;99982.44;4260215;33;35126;-68
2023/05/26 08:49:44;;;;;;;11.85;10.02;;;;;;;26.03;39.98;99986.41;4259964;33;34437;-68
2023/05/26 08:52:13;;;;;;;13.43;9.15;;;;;;;26.00;39.91;99984.97;4258414;33;33601;-68
2023/05/26 08:54:41;;;;;;;12.70;9.45;;;;;;;26.00;40.16;99981.41;4260067;33;33774;-69
2023/05/26 08:57:09;;;;;;;12.25;9.35;;;;;;;25.99;40.41;99979.75;4246944;33;34784;-69
2023/05/26 08:59:37;;;;;;;17.08;9.85;;;;;;;25.99;40.51;99975.09;4259922;33;33671;-68
2023/05/26 09:02:05;;;;;;;13.05;9.25;;;;;;;26.00;40.56;99975.94;4259841;33;33713;-68
2023/05/26 09:04:32;;;;;;;15.85;9.98;;;;;;;26.00;40.68;99970.47;4259874;33;34037;-68
2023/05/26 09:07:00;;;;;;;12.65;9.10;;;;;;;26.02;40.46;99971.03;4259936;33;34262;-69
2023/05/26 09:09:47;;;;;;;11.93;9.32;;;;;;;26.02;40.37;99971.03;4259802;33;33656;-69
2023/05/26 09:12:15;;;;;;;12.23;9.48;;;;;;;26.03;40.44;99967.25;4258346;33;34663;-69
2023/05/26 09:14:43;;;;;;;12.85;8.65;;;;;;;26.02;40.18;99965.56;4259912;33;34860;-69
2023/05/26 09:17:11;;;;;;;13.98;10.15;;;;;;;26.02;40.21;99960.97;4259860;33;34086;-69
2023/05/26 09:19:39;;;;;;;12.70;9.85;;;;;;;26.04;40.16;99968.91;4246831;33;33618;-68
2023/05/26 09:22:08;;;;;;;15.13;10.57;;;;;;;26.07;40.15;99973.91;4259430;33;33594;-69
2023/05/26 09:24:55;;;;;;;13.80;10.43;;;;;;;26.03;40.12;99973.56;4258630;33;33615;-69
2023/05/26 09:27:22;;;;;;;14.35;9.98;;;;;;;26.08;39.98;99979.13;4259782;33;34471;-68
2023/05/26 09:29:51;;;;;;;12.23;10.20;;;;;;;26.06;39.97;99978.53;4258419;33;34494;-69
2023/05/26 09:32:19;;;;;;;16.15;10.32;;;;;;;26.04;39.95;99968.91;4259402;33;33978;-69
2023/05/26 09:34:50;;;;;;;13.70;10.90;;;;;;;26.08;40.03;99964.63;4258556;33;34975;-68
2023/05/26 09:37:18;;;;;;;13.73;11.50;;;;;;;26.10;40.28;99973.41;4259827;33;34337;-68
2023/05/26 09:39:45;;;;;;;17.60;11.57;;;;;;;26.08;40.20;99962.72;4257625;33;34297;-68
2023/05/26 09:42:13;;;;;;;14.02;9.85;;;;;;;26.08;40.17;99962.72;4257960;33;33902;-68
2023/05/26 09:44:41;;;;;;;15.93;10.73;;;;;;;26.11;40.35;99962.25;4246963;33;34049;-69
2023/05/26 09:47:08;;;;;;;12.75;10.25;;;;;;;26.11;40.47;99969.59;4246901;33;34049;-68
2023/05/26 09:49:36;;;;;;;12.60;10.60;;;;;;;26.11;40.49;99962.25;4259426;33;34207;-68
2023/05/26 09:52:04;;;;;;;14.10;10.38;;;;;;;26.12;40.57;99963.09;4259227;33;33935;-69
2023/05/26 09:54:40;;;;;;;13.10;10.48;;;;;;;26.11;40.61;99959.53;4258243;33;34815;-68
2023/05/26 09:57:11;;;;;;;13.30;10.02;;;;;;;26.13;40.70;99953.81;4259038;33;33833;-69
2023/05/26 09:59:42;;;;;;;13.82;10.85;;;;;;;26.12;40.71;99954.87;4259245;33;34714;-68
2023/05/26 10:02:22;;;;;;;14.75;11.35;;;;;;;26.15;40.68;99963.41;4259061;33;33944;-69
2023/05/26 10:04:51;;;;;;;14.45;10.65;;;;;;;26.18;40.54;99960.22;4259059;33;34076;-68
2023/05/26 10:07:20;;;;;;;12.70;10.45;;;;;;;26.15;40.57;99957.94;4258493;33;35141;-68
2023/05/26 10:09:57;;;;;;;12.93;10.02;;;;;;;26.15;40.74;99955.22;4256884;33;34579;-68
2023/05/26 10:12:32;;;;;;;12.02;10.32;;;;;;;26.17;40.89;99952.25;4245016;33;34996;-68
2023/05/26 10:15:01;;;;;;;13.50;10.30;;;;;;;26.16;40.97;99959.62;4253867;33;34943;-68
2023/05/26 10:17:29;;;;;;;14.63;10.23;;;;;;;26.16;41.04;99959.62;4258361;33;34506;-68
2023/05/26 10:19:57;;;;;;;13.62;10.25;;;;;;;26.16;40.97;99953.31;4258801;33;33631;-69
2023/05/26 10:22:28;;;;;;;11.90;9.60;;;;;;;26.17;40.89;99955.81;4257974;33;34685;-68
2023/05/26 10:25:08;;;;;;;13.70;10.85;;;;;;;26.19;41.03;99963.78;4259017;33;33819;-68
2023/05/26 10:28:08;;;;;;;15.85;10.45;;;;;;;26.16;41.05;99954.16;4257232;33;35424;-68
2023/05/26 10:30:37;;;;;;;12.00;9.40;;;;;;;26.20;40.97;99954.50;4258109;33;33790;-68
2023/05/26 10:33:09;;;;;;;12.98;10.13;;;;;;;26.16;41.09;99953.31;4257961;33;34341;-67
2023/05/26 10:35:37;;;;;;;12.82;10.43;;;;;;;26.14;41.23;99956.28;4258872;33;33944;-68
2023/05/26 10:38:05;;;;;;;13.68;10.43;;;;;;;26.15;41.34;99944.28;4258591;33;35042;-68
2023/05/26 10:40:33;;;;;;;17.23;11.20;;;;;;;26.16;41.41;99939.63;4257539;33;33880;-68
2023/05/26 10:43:02;;;;;;;12.90;9.75;;;;;;;26.18;41.56;99941.06;4258813;33;34395;-68
2023/05/26 10:45:32;;;;;;;14.80;11.17;;;;;;;26.17;41.62;99935.84;4257668;33;34434;-68
2023/05/26 10:48:05;;;;;;;12.68;10.60;;;;;;;26.20;41.75;99938.91;4258635;33;34038;-68
2023/05/26 10:50:55;;;;;;;15.05;11.15;;;;;;;26.20;41.88;99938.91;4254548;33;34328;-68
2023/05/26 10:53:22;;;;;;;12.32;9.90;;;;;;;26.25;41.91;99929.16;4260722;33;33848;-67
2023/05/26 10:56:04;;;;;;;16.70;11.32;;;;;;;26.22;41.96;99930.47;4260617;33;33886;-68
2023/05/26 10:58:50;;;;;;;13.10;11.10;;;;;;;26.25;41.97;99927.25;4247739;33;33712;-69
2023/05/26 11:01:28;;;;;;;12.23;10.18;;;;;;;26.26;42.09;99933.56;4260667;33;34549;-68
2023/05/26 11:04:09;;;;;;;13.48;10.18;;;;;;;26.25;42.10;99932.72;4260645;33;33531;-69
2023/05/26 11:06:48;;;;;;;14.63;10.82;;;;;;;26.24;42.20;99927.50;4260629;33;34855;-69
2023/05/26 11:09:17;;;;;;;14.45;10.73;;;;;;;26.25;41.96;99927.25;4260462;33;34906;-68
2023/05/26 11:11:59;;;;;;;14.10;10.90;;;;;;;26.26;41.78;99925.37;4247629;33;32776;-69
2023/05/26 11:14:30;;;;;;;15.52;10.40;;;;;;;26.30;41.47;99927.38;4260830;33;33679;-69
2023/05/26 11:17:04;;;;;;;14.68;10.00;;;;;;;26.27;41.30;99924.28;4260552;33;33930;-68
2023/05/26 11:19:33;;;;;;;19.98;10.38;;;;;;;26.29;41.53;99927.59;4260626;33;34281;-69
2023/05/26 11:22:05;;;;;;;15.82;10.93;;;;;;;26.30;41.40;99927.38;4260697;33;34518;-69
2023/05/26 11:24:32;;;;;;;13.20;10.38;;;;;;;26.30;41.27;99926.50;4260601;33;34348;-69
2023/05/26 11:27:03;;;;;;;13.05;10.35;;;;;;;26.29;41.26;99922.94;4260457;33;34535;-69
2023/05/26 11:29:31;;;;;;;15.25;11.73;;;;;;;26.31;41.03;99911.78;4260230;33;34833;-69
2023/05/26 11:31:59;;;;;;;12.05;9.85;;;;;;;26.34;41.00;99909.37;4259223;33;34487;-69
2023/05/26 11:34:27;;;;;;;17.62;10.82;;;;;;;26.32;41.04;99907.97;4260340;33;33944;-69
2023/05/26 11:36:54;;;;;;;13.27;9.90;;;;;;;26.34;41.03;99912.09;4260490;33;34011;-69